createdAt,value
2024-01-16T05:09:22.836Z,-3.14
2024-01-16T05:19:51.070Z,-3.02
2024-01-16T05:30:19.403Z,-3.03
2024-01-16T05:40:49.470Z,-3.03
2024-01-16T05:51:30.669Z,-3.03
2024-01-16T06:02:07.726Z,-3.04
2024-01-16T06:12:53.008Z,-2.84
2024-01-16T06:23:36.472Z,-2.75
2024-01-16T06:34:22.704Z,-2.65
2024-01-16T06:45:05.271Z,-2.65
2024-01-16T06:55:47.079Z,-1.90
2024-01-16T07:06:28.844Z,-1.51
2024-01-16T07:17:14.662Z,-1.65
2024-01-16T07:28:05.568Z,-1.28
2024-01-16T07:38:50.562Z,-1.32
2024-01-16T07:49:20.691Z,-1.20
2024-01-16T07:59:48.505Z,-1.16
2024-01-16T08:10:19.397Z,-1.16
2024-01-16T08:20:43.523Z,-1.07
2024-01-16T08:31:11.588Z,-0.98
2024-01-16T08:41:39.990Z,-0.81
2024-01-16T08:52:07.881Z,-0.57
2024-01-16T09:02:30.407Z,-0.40
2024-01-16T09:13:00.459Z,-0.62
2024-01-16T09:23:23.175Z,-0.68
2024-01-16T09:33:51.153Z,-0.99
2024-01-16T09:44:19.123Z,-0.49
2024-01-16T09:54:47.165Z,-0.05
2024-01-16T10:05:15.259Z,-0.10
2024-01-16T10:15:43.525Z,0.06
2024-01-16T10:26:13.021Z,0.66
2024-01-16T10:36:40.997Z,-0.18
2024-01-16T10:47:17.146Z,-0.15
2024-01-16T10:57:45.206Z,-0.28
2024-01-16T11:08:18.320Z,-0.35
2024-01-16T11:18:41.594Z,-0.50
2024-01-16T11:29:28.113Z,-0.57
2024-01-16T11:39:52.822Z,-0.68
2024-01-16T11:50:32.427Z,-0.22
2024-01-16T12:01:04.552Z,2.05
2024-01-16T12:11:40.804Z,1.07
2024-01-16T12:22:05.621Z,1.67
2024-01-16T12:32:28.994Z,1.43
2024-01-16T12:42:57.526Z,0.59
2024-01-16T12:53:25.437Z,-1.04
2024-01-16T13:03:54.438Z,-1.13
2024-01-16T13:14:23.998Z,-1.38
2024-01-16T13:25:02.207Z,-1.55
2024-01-16T13:35:56.524Z,-1.76
2024-01-16T13:46:53.583Z,-2.04
2024-01-16T13:57:33.731Z,-2.33
2024-01-16T14:07:55.611Z,-2.55
2024-01-16T14:18:18.310Z,-2.80
2024-01-16T14:28:46.772Z,-2.99
2024-01-16T14:39:14.633Z,-3.14
2024-01-16T14:49:37.945Z,-3.44
2024-01-16T14:59:59.472Z,-3.58
2024-01-16T15:10:21.796Z,-3.77
2024-01-16T15:20:42.953Z,-3.80
2024-01-16T15:31:08.870Z,-3.82
2024-01-16T15:41:31.209Z,-3.73
2024-01-16T15:51:52.605Z,-3.82
2024-01-16T16:02:14.615Z,-3.88
2024-01-16T16:12:35.679Z,-4.12
2024-01-16T16:22:58.384Z,-4.30
2024-01-16T16:33:19.721Z,-4.33
2024-01-16T16:43:41.495Z,-4.37
2024-01-16T16:54:03.998Z,-4.35
2024-01-16T17:04:32.561Z,-4.32
2024-01-16T17:15:00.379Z,-4.42
2024-01-16T17:25:22.546Z,-4.51
2024-01-16T17:35:45.720Z,-4.62
2024-01-16T17:46:13.919Z,-4.73
2024-01-16T17:56:36.768Z,-4.84
2024-01-16T18:07:05.644Z,-5.10
2024-01-16T18:17:33.611Z,-5.10
2024-01-16T18:28:01.629Z,-5.43
2024-01-16T18:38:29.646Z,-5.80
2024-01-16T18:48:58.430Z,-5.96
2024-01-16T18:59:29.633Z,-5.96
2024-01-16T19:09:52.462Z,-6.12
2024-01-16T19:20:23.928Z,-6.28
2024-01-16T19:30:54.716Z,-6.34
2024-01-16T19:41:22.835Z,-6.49
2024-01-16T19:51:46.485Z,-6.61
2024-01-16T20:02:15.004Z,-6.80
2024-01-16T20:12:54.033Z,-6.79
2024-01-16T20:23:21.247Z,-6.93
2024-01-16T20:33:51.657Z,-6.76
2024-01-16T20:44:23.647Z,-6.85
2024-01-16T20:54:57.721Z,-6.85
2024-01-16T21:05:31.213Z,-6.77
2024-01-16T21:16:11.649Z,-6.62
2024-01-16T21:26:56.061Z,-6.51
2024-01-16T21:37:30.722Z,-6.55
2024-01-16T21:48:05.136Z,-6.60
2024-01-16T21:58:30.247Z,-6.79
